Time;durP1;ratioP1;P1;durP2;ratioP2;P2;SDS_P1;SDS_P2;PMS_P1;PMS_P2;Temp;Humidity;BMP_temperature;BMP_pressure;BME280_temperature;BME280_humidity;BME280_pressure;Samples;Min_cycle;Max_cycle;Signal;HPM_P1;HPM_P2
2023/11/18 00:02:38;;;;;;;2.13;1.73;;;;;;;;;;5861996;28;20049;-72
2023/11/18 00:05:29;;;;;;;1.70;1.38;;;;;;;;;;5860644;28;20107;-72
2023/11/18 00:08:20;;;;;;;1.45;1.35;;;;;;;;;;5861907;28;20052;-73
2023/11/18 00:11:11;;;;;;;0.82;0.75;;;;;;;;;;5861733;28;20045;-73
2023/11/18 00:14:04;;;;;;;1.50;0.95;;;;;;;;;;5861917;28;20045;-73
2023/11/18 00:16:55;;;;;;;4.80;1.77;;;;;;;;;;5862006;28;20045;-73
2023/11/18 00:19:47;;;;;;;1.60;1.25;;;;;;;;;;5861775;28;20045;-73
2023/11/18 00:22:39;;;;;;;1.85;0.88;;;;;;;;;;5861887;28;20060;-73
2023/11/18 00:25:31;;;;;;;0.90;0.90;;;;;;;;;;5864221;28;20049;-73
2023/11/18 00:28:22;;;;;;;1.25;1.15;;;;;;;;;;5866320;28;20057;-73
2023/11/18 00:31:13;;;;;;;3.10;1.95;;;;;;;;;;5866084;28;20049;-73
2023/11/18 00:34:04;;;;;;;3.75;1.55;;;;;;;;;;5866394;28;20054;-72
2023/11/18 00:36:58;;;;;;;5.85;3.33;;;;;;;;;;5866634;28;20084;-72
2023/11/18 00:39:49;;;;;;;6.70;4.72;;;;;;;;;;5866005;28;20053;-73
2023/11/18 00:42:40;;;;;;;4.47;3.03;;;;;;;;;;5866063;28;20713;-73
2023/11/18 00:45:31;;;;;;;4.38;2.88;;;;;;;;;;5866153;28;20387;-73
2023/11/18 00:48:21;;;;;;;4.75;1.35;;;;;;;;;;5880955;28;20061;-73
2023/11/18 00:51:12;;;;;;;0.60;0.60;;;;;;;;;;5865649;28;20121;-73
2023/11/18 00:54:07;;;;;;;1.70;1.60;;;;;;;;;;5865841;28;20061;-73
2023/11/18 00:56:58;;;;;;;1.65;1.45;;;;;;;;;;5880897;28;20041;-73
2023/11/18 00:59:49;;;;;;;1.48;1.35;;;;;;;;;;5880974;28;20499;-73
2023/11/18 01:02:42;;;;;;;0.95;0.93;;;;;;;;;;5875085;28;20048;-73
2023/11/18 01:05:33;;;;;;;2.63;1.20;;;;;;;;;;5867125;28;20045;-73
2023/11/18 01:08:24;;;;;;;2.70;2.08;;;;;;;;;;5865473;28;20049;-73
2023/11/18 01:11:19;;;;;;;1.60;1.23;;;;;;;;;;5865252;28;20058;-73
2023/11/18 01:14:11;;;;;;;1.67;0.98;;;;;;;;;;5865542;28;20056;-73
2023/11/18 01:17:02;;;;;;;1.80;1.67;;;;;;;;;;5865207;28;20115;-73
2023/11/18 01:19:53;;;;;;;3.40;1.48;;;;;;;;;;5866173;28;20041;-73
2023/11/18 01:22:45;;;;;;;0.43;0.43;;;;;;;;;;5865153;28;20049;-73
2023/11/18 01:25:36;;;;;;;2.38;2.00;;;;;;;;;;5865285;28;20471;-72
2023/11/18 01:28:29;;;;;;;1.75;1.65;;;;;;;;;;5865315;28;20410;-72
2023/11/18 01:31:20;;;;;;;3.55;1.73;;;;;;;;;;5864861;28;20096;-72
2023/11/18 01:34:12;;;;;;;0.57;0.57;;;;;;;;;;5864866;28;20053;-71
2023/11/18 01:37:04;;;;;;;2.97;1.67;;;;;;;;;;5863865;28;20430;-72
2023/11/18 01:39:55;;;;;;;2.53;2.03;;;;;;;;;;5864137;28;20046;-72
2023/11/18 01:42:46;;;;;;;3.22;2.00;;;;;;;;;;5864789;28;20049;-72
2023/11/18 01:45:37;;;;;;;6.05;3.92;;;;;;;;;;5864742;28;20132;-72
2023/11/18 01:48:30;;;;;;;3.70;2.55;;;;;;;;;;5864648;28;20053;-72
2023/11/18 01:51:23;;;;;;;3.10;1.95;;;;;;;;;;5864496;28;20049;-71
2023/11/18 01:54:18;;;;;;;2.90;2.60;;;;;;;;;;5864592;28;20052;-72
2023/11/18 01:57:10;;;;;;;1.95;1.70;;;;;;;;;;5864444;28;20056;-72
2023/11/18 02:00:05;;;;;;;1.10;1.00;;;;;;;;;;5863223;28;20065;-72
2023/11/18 02:02:56;;;;;;;1.35;1.23;;;;;;;;;;5864812;28;20049;-72
2023/11/18 02:05:47;;;;;;;2.75;1.85;;;;;;;;;;5864300;28;20059;-72
2023/11/18 02:08:38;;;;;;;1.88;1.60;;;;;;;;;;5864156;28;20056;-72
2023/11/18 02:11:42;;;;;;;1.65;1.50;;;;;;;;;;5864110;28;20052;-72
2023/11/18 02:14:37;;;;;;;0.57;0.57;;;;;;;;;;5862916;28;20421;-72
2023/11/18 02:17:29;;;;;;;2.08;1.67;;;;;;;;;;5862733;28;20053;-72
2023/11/18 02:20:21;;;;;;;2.03;1.88;;;;;;;;;;5862589;28;20049;-72
2023/11/18 02:23:12;;;;;;;3.17;1.42;;;;;;;;;;5862417;28;20045;-72
2023/11/18 02:26:03;;;;;;;1.10;1.00;;;;;;;;;;5863772;28;20064;-72
2023/11/18 02:28:54;;;;;;;3.22;1.05;;;;;;;;;;5864047;28;20072;-72
2023/11/18 02:31:46;;;;;;;0.77;0.77;;;;;;;;;;5863562;28;20050;-72
2023/11/18 02:34:51;;;;;;;1.10;0.88;;;;;;;;;;5862299;28;20049;-72
2023/11/18 02:37:47;;;;;;;2.90;1.08;;;;;;;;;;5862386;28;20041;-72
2023/11/18 02:40:43;;;;;;;0.82;0.82;;;;;;;;;;5863587;28;20045;-72
2023/11/18 02:43:37;;;;;;;0.65;0.65;;;;;;;;;;5863421;28;20045;-72
2023/11/18 02:46:28;;;;;;;3.03;1.42;;;;;;;;;;5862090;28;20204;-72
2023/11/18 02:49:18;;;;;;;1.42;1.00;;;;;;;;;;5861505;28;20183;-72
2023/11/18 02:52:09;;;;;;;0.90;0.90;;;;;;;;;;5863132;28;20045;-72
2023/11/18 02:55:00;;;;;;;1.67;1.08;;;;;;;;;;5863874;28;20079;-72
2023/11/18 02:57:54;;;;;;;0.70;0.70;;;;;;;;;;5863222;28;20148;-72
2023/11/18 03:00:45;;;;;;;0.73;0.73;;;;;;;;;;5863153;28;20069;-72
2023/11/18 03:03:36;;;;;;;0.55;0.55;;;;;;;;;;5862888;28;20880;-72
2023/11/18 03:06:27;;;;;;;0.70;0.50;;;;;;;;;;5862842;28;20053;-72
2023/11/18 03:09:18;;;;;;;2.22;1.50;;;;;;;;;;5862806;28;20388;-72
2023/11/18 03:12:09;;;;;;;1.33;1.23;;;;;;;;;;5862719;28;20049;-72
2023/11/18 03:15:00;;;;;;;1.35;1.25;;;;;;;;;;5862858;28;20049;-72
2023/11/18 03:17:52;;;;;;;3.03;1.17;;;;;;;;;;5862990;28;20050;-72
2023/11/18 03:20:43;;;;;;;1.52;1.42;;;;;;;;;;5862676;28;20046;-73
2023/11/18 03:23:34;;;;;;;1.70;1.60;;;;;;;;;;5862755;28;20050;-72
2023/11/18 03:26:26;;;;;;;1.38;1.20;;;;;;;;;;5862690;28;20482;-72
2023/11/18 03:29:17;;;;;;;2.65;1.45;;;;;;;;;;5862593;28;20124;-72
2023/11/18 03:32:07;;;;;;;1.40;0.95;;;;;;;;;;5862475;28;20052;-72
2023/11/18 03:35:02;;;;;;;1.40;1.30;;;;;;;;;;5862926;28;20155;-72
2023/11/18 03:37:53;;;;;;;1.55;1.05;;;;;;;;;;5862475;28;20042;-72
2023/11/18 03:40:45;;;;;;;1.13;1.02;;;;;;;;;;5862557;28;20076;-72
2023/11/18 03:43:37;;;;;;;0.28;0.28;;;;;;;;;;5862263;28;20049;-71
2023/11/18 03:46:34;;;;;;;0.70;0.70;;;;;;;;;;5862125;28;20068;-72
2023/11/18 03:49:25;;;;;;;0.90;0.60;;;;;;;;;;5862171;28;20052;-72
2023/11/18 03:52:16;;;;;;;0.40;0.40;;;;;;;;;;5862469;28;20046;-72
2023/11/18 03:55:08;;;;;;;0.80;0.80;;;;;;;;;;5862259;28;20048;-72
2023/11/18 03:57:59;;;;;;;0.75;0.75;;;;;;;;;;5862775;28;20053;-72
2023/11/18 04:00:49;;;;;;;1.75;1.30;;;;;;;;;;5865248;28;20049;-72
2023/11/18 04:03:41;;;;;;;0.63;0.63;;;;;;;;;;5866831;28;20053;-72
2023/11/18 04:06:32;;;;;;;0.73;0.55;;;;;;;;;;5866915;28;20053;-72
2023/11/18 04:09:23;;;;;;;0.77;0.55;;;;;;;;;;5866862;28;20046;-72
2023/11/18 04:12:16;;;;;;;0.73;0.60;;;;;;;;;;5866727;28;20057;-72
2023/11/18 04:15:07;;;;;;;0.60;0.60;;;;;;;;;;5866599;28;20041;-72
2023/11/18 04:17:58;;;;;;;0.60;0.57;;;;;;;;;;5865407;28;20053;-72
2023/11/18 04:20:49;;;;;;;0.40;0.40;;;;;;;;;;5866403;28;20593;-72
2023/11/18 04:23:42;;;;;;;0.65;0.60;;;;;;;;;;5866418;28;20057;-72
2023/11/18 04:26:33;;;;;;;2.47;0.52;;;;;;;;;;5865072;28;20041;-72
2023/11/18 04:29:24;;;;;;;0.50;0.50;;;;;;;;;;5866322;28;20057;-72
2023/11/18 04:32:15;;;;;;;0.75;0.50;;;;;;;;;;5866107;28;20051;-72
2023/11/18 04:35:07;;;;;;;3.10;1.48;;;;;;;;;;5866495;28;20530;-72
2023/11/18 04:37:58;;;;;;;0.47;0.47;;;;;;;;;;5866628;28;20414;-72
2023/11/18 04:40:49;;;;;;;0.50;0.50;;;;;;;;;;5866177;28;20403;-72
2023/11/18 04:43:41;;;;;;;0.73;0.60;;;;;;;;;;5866207;28;20041;-72
2023/11/18 04:46:36;;;;;;;0.60;0.60;;;;;;;;;;5866085;28;20055;-72
2023/11/18 04:49:28;;;;;;;1.55;0.80;;;;;;;;;;5866195;28;20048;-72
2023/11/18 04:52:18;;;;;;;0.55;0.55;;;;;;;;;;5866083;28;20053;-72
2023/11/18 04:55:12;;;;;;;0.50;0.50;;;;;;;;;;5865987;28;20494;-71
2023/11/18 04:58:05;;;;;;;0.50;0.50;;;;;;;;;;5865782;28;20517;-71
2023/11/18 05:00:56;;;;;;;0.35;0.35;;;;;;;;;;5866555;28;20045;-71
2023/11/18 05:03:47;;;;;;;1.23;1.10;;;;;;;;;;5865644;28;20544;-72
2023/11/18 05:06:38;;;;;;;1.25;0.60;;;;;;;;;;5865748;28;20049;-72
2023/11/18 05:09:29;;;;;;;0.30;0.30;;;;;;;;;;5865555;28;20049;-72
2023/11/18 05:12:20;;;;;;;0.47;0.47;;;;;;;;;;5863910;28;20049;-72
2023/11/18 05:15:11;;;;;;;0.45;0.45;;;;;;;;;;5864047;28;20404;-71
2023/11/18 05:18:01;;;;;;;0.35;0.35;;;;;;;;;;5864000;28;20124;-71
2023/11/18 05:20:54;;;;;;;0.50;0.50;;;;;;;;;;5865875;28;20045;-71
2023/11/18 05:23:45;;;;;;;0.60;0.60;;;;;;;;;;5865026;28;20050;-71
2023/11/18 05:26:35;;;;;;;0.57;0.57;;;;;;;;;;5865047;28;20650;-72
2023/11/18 05:29:27;;;;;;;1.20;0.95;;;;;;;;;;5865037;28;20049;-72
2023/11/18 05:32:20;;;;;;;0.75;0.75;;;;;;;;;;5864887;28;20064;-72
2023/11/18 05:35:11;;;;;;;0.30;0.30;;;;;;;;;;5863775;28;20041;-72
2023/11/18 05:38:06;;;;;;;0.43;0.38;;;;;;;;;;5863740;28;20053;-72
2023/11/18 05:40:57;;;;;;;0.45;0.45;;;;;;;;;;5865478;28;20045;-72
2023/11/18 05:43:51;;;;;;;1.13;1.02;;;;;;;;;;5864854;28;20144;-72
2023/11/18 05:46:46;;;;;;;0.70;0.70;;;;;;;;;;5864948;28;20049;-72
2023/11/18 05:49:38;;;;;;;0.70;0.70;;;;;;;;;;5864732;28;20045;-72
2023/11/18 05:52:28;;;;;;;1.58;1.45;;;;;;;;;;5864534;28;20124;-72
2023/11/18 05:55:19;;;;;;;1.92;1.60;;;;;;;;;;5864846;28;20057;-72
2023/11/18 05:58:10;;;;;;;1.48;1.30;;;;;;;;;;5863147;28;20606;-72
2023/11/18 06:01:02;;;;;;;1.30;1.20;;;;;;;;;;5864623;28;20050;-72
2023/11/18 06:03:53;;;;;;;3.78;1.02;;;;;;;;;;5864602;28;20056;-72
2023/11/18 06:06:44;;;;;;;0.80;0.70;;;;;;;;;;5864417;28;20052;-72
2023/11/18 06:09:35;;;;;;;1.17;0.47;;;;;;;;;;5864506;28;20053;-72
2023/11/18 06:12:26;;;;;;;2.80;0.40;;;;;;;;;;5864171;28;20533;-72
2023/11/18 06:15:18;;;;;;;0.73;0.73;;;;;;;;;;5864103;28;20211;-72
2023/11/18 06:18:09;;;;;;;0.55;0.50;;;;;;;;;;5863886;28;20075;-72
2023/11/18 06:21:00;;;;;;;0.98;0.95;;;;;;;;;;5864319;28;20049;-72
2023/11/18 06:23:51;;;;;;;4.68;3.33;;;;;;;;;;5863636;28;20045;-73
2023/11/18 06:26:42;;;;;;;5.63;2.20;;;;;;;;;;5863731;28;20135;-73
2023/11/18 06:29:33;;;;;;;1.33;1.23;;;;;;;;;;5863753;28;20055;-73
2023/11/18 06:32:25;;;;;;;0.95;0.82;;;;;;;;;;5878847;28;20045;-73
2023/11/18 06:35:16;;;;;;;1.27;1.17;;;;;;;;;;5863515;28;20046;-73
2023/11/18 06:38:07;;;;;;;0.50;0.50;;;;;;;;;;5863645;28;20757;-73
2023/11/18 06:40:59;;;;;;;0.47;0.47;;;;;;;;;;5863942;28;20053;-73
2023/11/18 06:43:59;;;;;;;0.55;0.55;;;;;;;;;;5863679;28;20052;-73
2023/11/18 06:46:51;;;;;;;0.60;0.60;;;;;;;;;;5863819;28;20044;-73
2023/11/18 06:49:42;;;;;;;0.65;0.65;;;;;;;;;;5863234;28;20641;-73
2023/11/18 06:52:38;;;;;;;0.82;0.82;;;;;;;;;;5863310;28;20111;-73
2023/11/18 06:55:29;;;;;;;0.52;0.52;;;;;;;;;;5863424;28;20391;-73
2023/11/18 06:58:20;;;;;;;0.52;0.52;;;;;;;;;;5863038;28;20038;-73
2023/11/18 07:01:15;;;;;;;1.20;1.10;;;;;;;;;;5863194;28;20052;-73
2023/11/18 07:04:09;;;;;;;1.33;1.13;;;;;;;;;;5863204;28;20056;-73
2023/11/18 07:07:01;;;;;;;2.08;1.45;;;;;;;;;;5863359;28;20049;-73
2023/11/18 07:09:52;;;;;;;1.45;1.20;;;;;;;;;;5863286;28;20057;-72
2023/11/18 07:12:43;;;;;;;3.22;1.80;;;;;;;;;;5862957;28;20041;-72
2023/11/18 07:15:34;;;;;;;1.98;1.77;;;;;;;;;;5862844;28;20045;-73
2023/11/18 07:18:25;;;;;;;0.60;0.60;;;;;;;;;;5862740;28;20052;-73
2023/11/18 07:21:15;;;;;;;1.45;1.35;;;;;;;;;;5862882;28;20065;-73
2023/11/18 07:24:07;;;;;;;0.68;0.65;;;;;;;;;;5862862;28;20392;-73
2023/11/18 07:26:59;;;;;;;1.58;1.48;;;;;;;;;;5863308;28;20048;-73
2023/11/18 07:29:51;;;;;;;3.25;1.85;;;;;;;;;;5862657;28;20061;-73
2023/11/18 07:32:41;;;;;;;1.60;1.27;;;;;;;;;;5862627;28;20060;-73
2023/11/18 07:35:32;;;;;;;3.45;2.40;;;;;;;;;;5861888;28;20337;-73
2023/11/18 07:38:23;;;;;;;2.33;2.10;;;;;;;;;;5861028;28;20049;-73
2023/11/18 07:41:23;;;;;;;3.22;2.22;;;;;;;;;;5862418;28;20047;-73
2023/11/18 07:44:16;;;;;;;5.82;1.95;;;;;;;;;;5862554;28;20045;-73
2023/11/18 07:47:07;;;;;;;1.83;0.93;;;;;;;;;;5862611;28;20123;-73
2023/11/18 07:49:59;;;;;;;1.77;1.52;;;;;;;;;;5862888;28;20085;-73
2023/11/18 07:52:50;;;;;;;4.20;2.05;;;;;;;;;;5862515;28;20434;-73
2023/11/18 07:55:42;;;;;;;1.75;1.52;;;;;;;;;;5862530;28;20049;-73
2023/11/18 07:58:37;;;;;;;3.28;2.55;;;;;;;;;;5862190;28;20049;-73
2023/11/18 08:01:27;;;;;;;2.35;2.15;;;;;;;;;;5862258;28;20052;-73
2023/11/18 08:04:20;;;;;;;5.05;3.00;;;;;;;;;;5862715;28;20065;-73
2023/11/18 08:07:11;;;;;;;5.25;1.67;;;;;;;;;;5862385;28;20133;-72
2023/11/18 08:10:06;;;;;;;5.43;2.45;;;;;;;;;;5862421;28;20372;-72
2023/11/18 08:12:56;;;;;;;2.10;1.65;;;;;;;;;;5862346;28;20426;-72
2023/11/18 08:15:47;;;;;;;1.15;1.02;;;;;;;;;;5862296;28;20041;-72
2023/11/18 08:18:39;;;;;;;2.20;2.00;;;;;;;;;;5861979;28;20053;-72
2023/11/18 08:21:30;;;;;;;1.20;1.08;;;;;;;;;;5862094;28;20053;-72
2023/11/18 08:24:21;;;;;;;1.48;1.35;;;;;;;;;;5862191;28;20053;-72
2023/11/18 08:27:12;;;;;;;0.90;0.90;;;;;;;;;;5862253;28;20418;-72
2023/11/18 08:30:11;;;;;;;1.90;1.38;;;;;;;;;;5861519;28;20057;-72
2023/11/18 08:33:04;;;;;;;7.00;4.28;;;;;;;;;;5862148;28;20046;-72
2023/11/18 08:35:56;;;;;;;13.48;6.78;;;;;;;;;;5862345;28;20045;-73
2023/11/18 08:38:47;;;;;;;6.72;4.03;;;;;;;;;;5861866;28;20495;-73
2023/11/18 08:41:38;;;;;;;3.53;2.40;;;;;;;;;;5861702;28;20414;-73
2023/11/18 08:44:29;;;;;;;6.70;3.20;;;;;;;;;;5861764;28;20053;-73
2023/11/18 08:47:20;;;;;;;5.60;1.80;;;;;;;;;;5865171;28;20049;-72
2023/11/18 08:50:14;;;;;;;2.40;1.92;;;;;;;;;;5866333;28;20541;-72
2023/11/18 08:53:05;;;;;;;2.13;1.30;;;;;;;;;;5866127;28;20076;-72
2023/11/18 08:55:56;;;;;;;1.58;1.48;;;;;;;;;;5866469;28;20045;-72
2023/11/18 08:58:49;;;;;;;2.17;1.15;;;;;;;;;;5865904;28;20050;-73
2023/11/18 09:01:42;;;;;;;2.80;2.22;;;;;;;;;;5865864;28;20103;-72
2023/11/18 09:04:33;;;;;;;4.85;2.08;;;;;;;;;;5865658;28;20735;-73
2023/11/18 09:07:24;;;;;;;4.55;2.13;;;;;;;;;;5865462;28;20135;-72
2023/11/18 09:10:16;;;;;;;3.95;1.73;;;;;;;;;;5864299;28;20060;-72
2023/11/18 09:13:07;;;;;;;1.60;1.50;;;;;;;;;;5865674;28;20045;-73
2023/11/18 09:16:02;;;;;;;11.98;5.85;;;;;;;;;;5865747;28;20418;-73
2023/11/18 09:18:53;;;;;;;24.33;3.25;;;;;;;;;;5865496;28;20440;-73
2023/11/18 09:21:44;;;;;;;4.03;1.42;;;;;;;;;;5865066;28;20060;-73
2023/11/18 09:24:36;;;;;;;4.20;3.60;;;;;;;;;;5865329;28;20049;-73
2023/11/18 09:27:29;;;;;;;3.03;2.55;;;;;;;;;;5865638;28;20055;-73
2023/11/18 09:30:19;;;;;;;7.63;2.47;;;;;;;;;;5865139;28;20056;-72
2023/11/18 09:33:13;;;;;;;2.70;2.10;;;;;;;;;;5865269;28;20125;-72
2023/11/18 09:36:07;;;;;;;1.30;1.10;;;;;;;;;;5865277;28;20132;-73
2023/11/18 09:38:59;;;;;;;2.08;1.88;;;;;;;;;;5880542;28;20502;-73
2023/11/18 09:41:51;;;;;;;5.45;1.38;;;;;;;;;;5865203;28;20041;-75
2023/11/18 09:44:43;;;;;;;4.38;2.63;;;;;;;;;;5864953;28;20048;-73
2023/11/18 09:47:47;;;;;;;3.00;2.17;;;;;;;;;;5863646;28;20518;-74
2023/11/18 09:50:38;;;;;;;1.88;1.10;;;;;;;;;;5864877;28;20060;-73
2023/11/18 09:53:36;;;;;;;2.40;1.55;;;;;;;;;;5863388;28;20045;-73
2023/11/18 09:56:43;;;;;;;1.75;1.08;;;;;;;;;;5864511;28;20132;-75
2023/11/18 09:59:59;;;;;;;1.48;1.38;;;;;;;;;;5864251;28;20049;-73
2023/11/18 10:02:50;;;;;;;1.42;1.33;;;;;;;;;;5863405;28;20037;-73
2023/11/18 10:05:44;;;;;;;2.00;1.80;;;;;;;;;;5864617;28;20410;-73
2023/11/18 10:08:37;;;;;;;2.45;1.33;;;;;;;;;;5864410;28;20049;-73
2023/11/18 10:11:29;;;;;;;1.55;1.42;;;;;;;;;;5864118;28;20494;-73
2023/11/18 10:14:20;;;;;;;3.35;0.85;;;;;;;;;;5864023;28;20049;-73
2023/11/18 10:17:14;;;;;;;2.85;2.05;;;;;;;;;;5864106;28;20137;-73
2023/11/18 10:20:12;;;;;;;2.35;2.15;;;;;;;;;;5863974;28;20049;-73
2023/11/18 10:23:11;;;;;;;0.88;0.88;;;;;;;;;;5864334;28;20045;-73
2023/11/18 10:26:04;;;;;;;2.35;1.65;;;;;;;;;;5864136;28;20099;-73
2023/11/18 10:28:54;;;;;;;1.35;1.30;;;;;;;;;;5864259;28;20551;-73
2023/11/18 10:31:45;;;;;;;1.25;1.15;;;;;;;;;;5863621;28;20046;-73
2023/11/18 10:34:37;;;;;;;2.58;2.03;;;;;;;;;;5863961;28;20167;-73
2023/11/18 10:37:30;;;;;;;2.40;1.88;;;;;;;;;;5863475;28;20079;-73
2023/11/18 10:40:24;;;;;;;2.70;2.20;;;;;;;;;;5863698;28;20053;-73
2023/11/18 10:43:16;;;;;;;2.67;1.70;;;;;;;;;;5862211;28;20046;-73
2023/11/18 10:46:13;;;;;;;8.40;2.78;;;;;;;;;;5863428;28;20060;-73
2023/11/18 10:49:09;;;;;;;1.92;1.67;;;;;;;;;;5863745;28;20047;-73
2023/11/18 10:52:03;;;;;;;2.30;2.10;;;;;;;;;;5863525;28;20050;-73
2023/11/18 10:54:55;;;;;;;1.40;1.30;;;;;;;;;;5864051;28;20045;-73
2023/11/18 10:57:46;;;;;;;1.50;0.85;;;;;;;;;;5863228;28;20153;-73
2023/11/18 11:00:53;;;;;;;5.65;3.38;;;;;;;;;;5861954;28;20045;-73
2023/11/18 11:03:56;;;;;;;7.25;2.20;;;;;;;;;;5862768;28;20049;-73
2023/11/18 11:06:53;;;;;;;4.72;2.42;;;;;;;;;;5862767;28;20061;-73
2023/11/18 11:09:45;;;;;;;1.23;1.13;;;;;;;;;;5863162;28;20159;-75
2023/11/18 11:12:52;;;;;;;2.15;1.92;;;;;;;;;;5862968;28;20123;-73
2023/11/18 11:15:45;;;;;;;1.20;1.10;;;;;;;;;;5862816;28;20042;-73
2023/11/18 11:18:53;;;;;;;3.17;1.98;;;;;;;;;;5862738;28;20052;-73
2023/11/18 11:21:55;;;;;;;2.22;2.03;;;;;;;;;;5862860;28;20051;-73
2023/11/18 11:25:09;;;;;;;1.70;1.60;;;;;;;;;;5861385;28;20056;-73
2023/11/18 11:28:15;;;;;;;2.70;1.27;;;;;;;;;;5862871;28;20038;-74
2023/11/18 11:31:18;;;;;;;1.45;0.95;;;;;;;;;;5862585;28;20702;-73
2023/11/18 11:34:20;;;;;;;22.70;2.05;;;;;;;;;;5862561;28;20051;-73
2023/11/18 11:37:12;;;;;;;1.15;0.98;;;;;;;;;;5862918;28;20128;-73
2023/11/18 11:40:10;;;;;;;3.20;1.90;;;;;;;;;;5861312;28;20045;-73
2023/11/18 11:43:04;;;;;;;1.88;1.60;;;;;;;;;;5862545;28;20053;-73
2023/11/18 11:45:55;;;;;;;1.10;1.00;;;;;;;;;;5863213;28;20068;-74
2023/11/18 11:48:47;;;;;;;5.95;1.33;;;;;;;;;;5862363;28;20038;-73
2023/11/18 11:52:03;;;;;;;4.50;1.95;;;;;;;;;;5862336;28;20049;-73
2023/11/18 11:55:13;;;;;;;4.88;3.35;;;;;;;;;;5862515;28;20041;-73
2023/11/18 11:58:06;;;;;;;1.88;1.38;;;;;;;;;;5860709;28;20045;-73
2023/11/18 12:01:07;;;;;;;11.75;2.47;;;;;;;;;;5862732;28;20045;-73
2023/11/18 12:04:06;;;;;;;1.42;1.33;;;;;;;;;;5862609;28;20041;-73
2023/11/18 12:07:01;;;;;;;2.00;1.90;;;;;;;;;;5862342;28;20050;-73
2023/11/18 12:10:13;;;;;;;2.60;1.48;;;;;;;;;;5860811;28;20126;-73
2023/11/18 12:13:21;;;;;;;2.15;1.52;;;;;;;;;;5862209;28;20513;-73
2023/11/18 12:16:16;;;;;;;5.57;2.15;;;;;;;;;;5861974;28;20045;-73
2023/11/18 12:19:44;;;;;;;2.35;1.88;;;;;;;;;;5862316;28;20466;-73
2023/11/18 12:23:14;;;;;;;2.33;1.83;;;;;;;;;;5866510;28;20546;-73
2023/11/18 12:26:40;;;;;;;8.32;4.05;;;;;;;;;;5865258;28;20065;-73
2023/11/18 12:29:34;;;;;;;6.53;1.65;;;;;;;;;;5866557;28;20049;-73
2023/11/18 12:32:55;;;;;;;1.13;1.02;;;;;;;;;;5866522;28;20490;-74
2023/11/18 12:36:01;;;;;;;1.90;1.42;;;;;;;;;;5866500;28;20084;-73
2023/11/18 12:39:50;;;;;;;5.32;1.92;;;;;;;;;;5866636;28;20049;-73
2023/11/18 12:43:10;;;;;;;3.13;1.80;;;;;;;;;;5865909;28;20164;-73
2023/11/18 12:46:44;;;;;;;9.05;3.85;;;;;;;;;;5865017;28;20380;-73
2023/11/18 12:49:41;;;;;;;3.05;1.85;;;;;;;;;;5866284;28;20511;-74
2023/11/18 12:52:32;;;;;;;2.85;2.60;;;;;;;;;;5865895;28;20045;-73
2023/11/18 12:55:26;;;;;;;4.10;3.20;;;;;;;;;;5866230;28;20056;-73
2023/11/18 12:58:18;;;;;;;6.25;3.92;;;;;;;;;;5865988;28;20049;-73
2023/11/18 13:01:14;;;;;;;4.88;2.40;;;;;;;;;;5865858;28;20050;-74
2023/11/18 13:04:05;;;;;;;1.55;1.45;;;;;;;;;;5866267;28;20144;-73
2023/11/18 13:06:58;;;;;;;1.15;0.90;;;;;;;;;;5866238;28;20144;-74
2023/11/18 13:09:49;;;;;;;2.88;1.52;;;;;;;;;;5864449;28;20049;-73
2023/11/18 13:12:42;;;;;;;2.55;2.22;;;;;;;;;;5864442;28;20045;-73
2023/11/18 13:15:34;;;;;;;1.33;1.23;;;;;;;;;;5865749;28;20046;-73
2023/11/18 13:18:26;;;;;;;1.73;1.38;;;;;;;;;;5865304;28;20047;-73
2023/11/18 13:21:20;;;;;;;1.45;1.35;;;;;;;;;;5863972;28;20056;-73
2023/11/18 13:24:12;;;;;;;1.80;1.60;;;;;;;;;;5865486;28;20124;-73
2023/11/18 13:27:04;;;;;;;2.40;1.83;;;;;;;;;;5865667;28;20045;-73
2023/11/18 13:29:55;;;;;;;2.63;1.83;;;;;;;;;;5865807;28;20049;-74
2023/11/18 13:32:46;;;;;;;3.78;2.97;;;;;;;;;;5862503;28;20056;-73
2023/11/18 13:35:37;;;;;;;1.52;1.42;;;;;;;;;;5865345;28;20045;-73
2023/11/18 13:38:29;;;;;;;3.50;2.42;;;;;;;;;;5865070;28;20049;-73
2023/11/18 13:41:32;;;;;;;4.55;2.03;;;;;;;;;;5864767;28;20410;-73
2023/11/18 13:44:39;;;;;;;3.80;1.73;;;;;;;;;;5864884;28;20125;-73
2023/11/18 13:47:32;;;;;;;2.17;2.08;;;;;;;;;;5865038;28;20041;-73
2023/11/18 13:50:24;;;;;;;5.25;3.38;;;;;;;;;;5863480;28;20072;-74
2023/11/18 13:53:16;;;;;;;3.38;1.60;;;;;;;;;;5864693;28;20467;-73
2023/11/18 13:56:08;;;;;;;2.00;1.73;;;;;;;;;;5863392;28;20046;-73
2023/11/18 13:59:00;;;;;;;5.20;2.15;;;;;;;;;;5865185;28;20054;-73
2023/11/18 14:01:56;;;;;;;2.90;2.42;;;;;;;;;;5864771;28;20406;-73
2023/11/18 14:04:48;;;;;;;8.65;2.45;;;;;;;;;;5863339;28;20049;-73
2023/11/18 14:07:39;;;;;;;3.60;2.28;;;;;;;;;;5864648;28;20395;-73
2023/11/18 14:10:30;;;;;;;4.47;1.42;;;;;;;;;;5864680;28;20049;-73
2023/11/18 14:13:22;;;;;;;2.35;1.48;;;;;;;;;;5864181;28;20060;-73
2023/11/18 14:16:12;;;;;;;2.10;1.25;;;;;;;;;;5864259;28;20469;-73
2023/11/18 14:19:05;;;;;;;2.38;1.92;;;;;;;;;;5864203;28;20120;-73
2023/11/18 14:21:57;;;;;;;2.63;1.98;;;;;;;;;;5864687;28;20072;-73
2023/11/18 14:24:48;;;;;;;3.42;2.65;;;;;;;;;;5864206;28;20049;-73
2023/11/18 14:27:38;;;;;;;3.85;3.13;;;;;;;;;;5863921;28;20049;-73
2023/11/18 14:30:30;;;;;;;8.88;4.22;;;;;;;;;;5864036;28;20411;-73
2023/11/18 14:33:21;;;;;;;4.25;2.53;;;;;;;;;;5863877;28;20155;-73
2023/11/18 14:36:11;;;;;;;6.18;2.47;;;;;;;;;;5862583;28;20517;-74
2023/11/18 14:39:03;;;;;;;2.60;2.10;;;;;;;;;;5863898;28;20045;-73
2023/11/18 14:41:54;;;;;;;11.80;6.18;;;;;;;;;;5863883;28;20041;-73
2023/11/18 14:44:45;;;;;;;4.30;2.30;;;;;;;;;;5863402;28;20052;-74
2023/11/18 14:47:35;;;;;;;4.32;3.65;;;;;;;;;;5863616;28;20056;-73
2023/11/18 14:50:27;;;;;;;5.18;2.63;;;;;;;;;;5863480;28;20045;-73
2023/11/18 14:53:19;;;;;;;4.10;2.55;;;;;;;;;;5863141;28;20069;-73
2023/11/18 14:56:10;;;;;;;3.10;2.85;;;;;;;;;;5863767;28;20045;-73
2023/11/18 14:59:01;;;;;;;5.18;2.30;;;;;;;;;;5863399;28;20041;-73
2023/11/18 15:01:56;;;;;;;6.32;3.38;;;;;;;;;;5863547;28;20060;-74
2023/11/18 15:04:48;;;;;;;3.25;2.13;;;;;;;;;;5863330;28;20045;-73
2023/11/18 15:07:39;;;;;;;9.43;2.67;;;;;;;;;;5863325;28;20414;-73
2023/11/18 15:10:30;;;;;;;2.50;2.30;;;;;;;;;;5863147;28;20050;-73
2023/11/18 15:13:20;;;;;;;4.22;2.97;;;;;;;;;;5862915;28;20053;-73
2023/11/18 15:16:11;;;;;;;5.00;3.05;;;;;;;;;;5863056;28;20045;-74
2023/11/18 15:19:03;;;;;;;9.38;4.40;;;;;;;;;;5863326;28;20512;-73
2023/11/18 15:21:54;;;;;;;5.63;3.42;;;;;;;;;;5863197;28;20045;-73
2023/11/18 15:24:47;;;;;;;7.63;2.47;;;;;;;;;;5862792;28;20049;-73
2023/11/18 15:27:44;;;;;;;4.97;3.03;;;;;;;;;;5862821;28;20064;-73
2023/11/18 15:30:39;;;;;;;5.47;3.22;;;;;;;;;;5863137;28;20517;-73
2023/11/18 15:33:31;;;;;;;4.15;3.15;;;;;;;;;;5862850;28;20041;-73
2023/11/18 15:36:23;;;;;;;8.13;5.95;;;;;;;;;;5862746;28;20525;-73
2023/11/18 15:39:14;;;;;;;19.20;6.95;;;;;;;;;;5862728;28;20068;-73
2023/11/18 15:42:05;;;;;;;7.80;3.85;;;;;;;;;;5862650;28;20045;-73
2023/11/18 15:44:56;;;;;;;7.03;3.85;;;;;;;;;;5863122;28;20434;-73
2023/11/18 15:47:49;;;;;;;8.60;2.28;;;;;;;;;;5862463;28;20045;-73
2023/11/18 15:50:40;;;;;;;8.30;5.22;;;;;;;;;;5862540;28;20138;-73
2023/11/18 15:53:30;;;;;;;8.18;5.47;;;;;;;;;;5862405;28;20410;-74
2023/11/18 15:56:22;;;;;;;8.90;5.57;;;;;;;;;;5861539;28;20049;-73
2023/11/18 15:59:14;;;;;;;9.95;4.20;;;;;;;;;;5862491;28;20769;-73
2023/11/18 16:02:05;;;;;;;7.05;2.92;;;;;;;;;;5862404;28;20055;-74
2023/11/18 16:04:56;;;;;;;7.55;3.80;;;;;;;;;;5863067;28;20045;-73
2023/11/18 16:07:54;;;;;;;6.88;5.03;;;;;;;;;;5862352;28;20125;-73
2023/11/18 16:10:45;;;;;;;4.75;4.25;;;;;;;;;;5862315;28;20053;-73
2023/11/18 16:13:36;;;;;;;7.60;3.70;;;;;;;;;;5862257;28;20049;-74
2023/11/18 16:16:27;;;;;;;3.92;3.03;;;;;;;;;;5861963;28;20049;-73
2023/11/18 16:19:19;;;;;;;18.52;5.03;;;;;;;;;;5862172;28;20050;-73
2023/11/18 16:22:10;;;;;;;12.50;4.93;;;;;;;;;;5860784;28;20053;-73
2023/11/18 16:25:04;;;;;;;4.97;3.47;;;;;;;;;;5862064;28;20056;-73
2023/11/18 16:27:58;;;;;;;4.00;2.20;;;;;;;;;;5862633;28;20042;-74
2023/11/18 16:30:50;;;;;;;7.28;2.70;;;;;;;;;;5860922;28;20132;-73
2023/11/18 16:33:43;;;;;;;5.72;3.05;;;;;;;;;;5861967;28;20046;-73
2023/11/18 16:36:34;;;;;;;4.75;2.88;;;;;;;;;;5860624;28;20517;-73
2023/11/18 16:39:26;;;;;;;6.50;2.67;;;;;;;;;;5861904;28;20045;-74
2023/11/18 16:42:18;;;;;;;9.07;5.68;;;;;;;;;;5861977;28;20143;-73
2023/11/18 16:45:11;;;;;;;6.85;5.32;;;;;;;;;;5862051;28;20045;-73
2023/11/18 16:48:04;;;;;;;7.90;5.18;;;;;;;;;;5861734;28;20559;-73
2023/11/18 16:50:55;;;;;;;9.82;3.53;;;;;;;;;;5861082;28;20061;-74
2023/11/18 16:53:46;;;;;;;5.82;3.25;;;;;;;;;;5861801;28;20099;-74
2023/11/18 16:56:36;;;;;;;4.78;3.63;;;;;;;;;;5861787;28;20053;-73
2023/11/18 16:59:27;;;;;;;9.38;5.43;;;;;;;;;;5861993;28;20048;-73
2023/11/18 17:02:18;;;;;;;7.13;5.28;;;;;;;;;;5861472;28;20187;-73
2023/11/18 17:05:10;;;;;;;8.75;5.72;;;;;;;;;;5861690;28;20045;-73
2023/11/18 17:08:01;;;;;;;7.40;4.25;;;;;;;;;;5864690;28;20049;-73
2023/11/18 17:10:53;;;;;;;5.40;3.50;;;;;;;;;;5866476;28;20132;-73
2023/11/18 17:13:44;;;;;;;8.57;3.92;;;;;;;;;;5865597;28;20052;-73
2023/11/18 17:16:35;;;;;;;4.50;2.88;;;;;;;;;;5865295;28;20403;-74
2023/11/18 17:19:26;;;;;;;4.65;4.10;;;;;;;;;;5865484;28;20513;-73
2023/11/18 17:22:17;;;;;;;7.28;4.50;;;;;;;;;;5865144;28;20045;-73